createdAt,value
2022-08-05T00:01:36.358Z,23.31
2022-08-05T00:04:17.072Z,23.32
2022-08-05T00:06:47.116Z,23.32
2022-08-05T00:09:16.016Z,23.30
2022-08-05T00:11:49.244Z,23.27
2022-08-05T00:14:26.459Z,23.26
2022-08-05T00:16:56.766Z,23.25
2022-08-05T00:19:25.048Z,23.24
2022-08-05T00:22:01.761Z,23.30
2022-08-05T00:24:30.661Z,23.28
2022-08-05T00:26:59.961Z,23.31
2022-08-05T00:29:37.650Z,23.32
2022-08-05T00:32:13.127Z,23.33
2022-08-05T00:35:04.726Z,23.36
2022-08-05T00:37:50.617Z,23.36
2022-08-05T00:40:28.168Z,23.34
2022-08-05T00:43:01.426Z,23.29
2022-08-05T00:45:42.776Z,23.21
2022-08-05T00:48:14.483Z,23.17
2022-08-05T00:50:44.270Z,23.13
2022-08-05T00:53:45.154Z,23.09
2022-08-05T00:56:03.308Z,23.09
2022-08-05T00:58:31.002Z,23.11
2022-08-05T01:00:58.873Z,23.09
2022-08-05T01:03:30.875Z,23.12
2022-08-05T01:06:01.258Z,23.13
2022-08-05T01:08:43.026Z,23.15
2022-08-05T01:11:36.726Z,23.19
2022-08-05T01:14:27.891Z,23.22
2022-08-05T01:16:56.146Z,23.32
2022-08-05T01:19:30.399Z,23.35
2022-08-05T01:22:24.274Z,23.32
2022-08-05T01:25:39.625Z,23.28
2022-08-05T01:28:29.069Z,23.28
2022-08-05T01:31:22.606Z,23.32
2022-08-05T01:33:59.911Z,23.36
2022-08-05T01:36:32.298Z,23.39
2022-08-05T01:39:02.094Z,23.40
2022-08-05T01:41:35.726Z,23.42
2022-08-05T01:44:10.016Z,23.44
2022-08-05T01:46:42.191Z,23.42
2022-08-05T01:49:25.417Z,23.38
2022-08-05T01:52:18.031Z,23.36
2022-08-05T01:54:53.670Z,23.42
2022-08-05T01:58:10.807Z,23.45
2022-08-05T02:00:16.192Z,23.47
2022-08-05T02:02:55.443Z,23.40
2022-08-05T02:05:31.006Z,23.42
2022-08-05T02:08:02.354Z,23.40
2022-08-05T02:10:35.815Z,23.41
2022-08-05T02:13:17.652Z,23.35
2022-08-05T02:15:51.398Z,23.27
2022-08-05T02:18:31.727Z,23.24
2022-08-05T02:21:14.784Z,23.31
2022-08-05T02:23:47.481Z,23.27
2022-08-05T02:26:23.388Z,23.26
2022-08-05T02:28:58.365Z,23.33
2022-08-05T02:31:34.940Z,23.39
2022-08-05T02:34:07.002Z,23.47
2022-08-05T02:36:40.415Z,23.49
2022-08-05T02:39:10.313Z,23.53
2022-08-05T02:41:57.462Z,23.60
2022-08-05T02:44:29.640Z,23.64
2022-08-05T02:47:00.741Z,23.71
2022-08-05T02:49:36.547Z,23.77
2022-08-05T02:52:11.520Z,23.79
2022-08-05T02:54:51.193Z,23.82
2022-08-05T02:58:12.050Z,23.85
2022-08-05T03:00:12.974Z,23.87
2022-08-05T03:02:43.040Z,23.90
2022-08-05T03:05:13.439Z,24.00
2022-08-05T03:08:04.579Z,24.06
2022-08-05T03:10:30.443Z,24.15
2022-08-05T03:15:24.583Z,24.23
2022-08-05T03:17:57.666Z,24.27
2022-08-05T03:20:26.055Z,24.33
2022-08-05T03:22:57.645Z,24.40
2022-08-05T03:25:32.377Z,24.43
2022-08-05T03:28:03.630Z,24.49
2022-08-05T03:30:34.457Z,24.51
2022-08-05T03:33:07.467Z,24.62
2022-08-05T03:35:40.707Z,24.69
2022-08-05T03:38:09.344Z,24.70
2022-08-05T03:40:41.459Z,24.71
2022-08-05T03:43:58.603Z,24.74
2022-08-05T03:46:01.787Z,24.75
2022-08-05T03:48:30.420Z,24.75
2022-08-05T03:52:39.423Z,24.78
2022-08-05T03:56:00.671Z,24.88
2022-08-05T03:57:42.420Z,25.00
2022-08-05T04:00:15.843Z,25.00
2022-08-05T04:02:58.611Z,24.93
2022-08-05T04:05:33.711Z,24.89
2022-08-05T04:08:14.648Z,24.89
2022-08-05T04:10:57.846Z,24.91
2022-08-05T04:13:27.842Z,24.99
2022-08-05T04:16:15.226Z,25.00
2022-08-05T04:18:53.942Z,25.00
2022-08-05T04:22:05.283Z,24.97
2022-08-05T04:24:18.809Z,24.97
2022-08-05T04:26:47.786Z,24.97
2022-08-05T04:29:15.474Z,24.93
2022-08-05T04:31:43.159Z,24.93
2022-08-05T04:34:31.756Z,24.95
2022-08-05T04:36:58.924Z,24.94
2022-08-05T04:39:27.614Z,24.91
2022-08-05T04:41:55.627Z,24.92
2022-08-05T04:44:30.180Z,24.90
2022-08-05T04:47:09.293Z,24.86
2022-08-05T04:50:01.022Z,24.80
2022-08-05T04:52:27.644Z,24.78
2022-08-05T04:54:57.084Z,24.76
2022-08-05T04:57:29.109Z,24.72
2022-08-05T04:59:58.972Z,24.69
2022-08-05T05:02:36.136Z,24.66
2022-08-05T05:05:26.577Z,24.65
2022-08-05T05:08:01.196Z,24.62
2022-08-05T05:10:33.824Z,24.59
2022-08-05T05:13:04.242Z,24.56
2022-08-05T05:15:57.634Z,24.51
2022-08-05T05:18:33.050Z,24.49
2022-08-05T05:21:02.350Z,24.48
2022-08-05T05:23:39.367Z,24.46
2022-08-05T05:26:18.920Z,24.46
2022-08-05T05:28:46.605Z,24.47
2022-08-05T05:31:14.857Z,24.51
2022-08-05T05:33:58.723Z,24.52
2022-08-05T05:36:29.834Z,24.53
2022-08-05T05:38:58.339Z,24.52
2022-08-05T05:41:26.719Z,24.49
2022-08-05T05:44:36.045Z,24.47
2022-08-05T05:46:56.442Z,24.46
2022-08-05T05:49:25.868Z,24.49
2022-08-05T05:51:54.272Z,24.47
2022-08-05T05:54:22.713Z,24.48
2022-08-05T05:57:13.521Z,24.44
2022-08-05T05:59:41.702Z,24.43
2022-08-05T06:02:11.007Z,24.43
2022-08-05T06:04:38.743Z,24.44
2022-08-05T06:07:06.441Z,24.41
2022-08-05T06:09:59.884Z,24.38
2022-08-05T06:12:21.752Z,24.39
2022-08-05T06:14:54.899Z,24.44
2022-08-05T06:17:24.744Z,24.47
2022-08-05T06:19:59.926Z,24.51
2022-08-05T06:22:33.776Z,24.53
2022-08-05T06:25:59.173Z,24.57
2022-08-05T06:28:10.719Z,24.62
2022-08-05T06:30:38.266Z,24.66
2022-08-05T06:33:09.742Z,24.71
2022-08-05T06:36:05.692Z,24.75
2022-08-05T06:38:35.826Z,24.79
2022-08-05T06:41:07.852Z,24.85
2022-08-05T06:43:57.605Z,24.91
2022-08-05T06:46:30.104Z,24.97
2022-08-05T06:49:00.778Z,25.00
2022-08-05T06:51:30.746Z,25.03
2022-08-05T06:54:00.515Z,25.04
2022-08-05T06:56:34.420Z,25.05
2022-08-05T06:59:03.384Z,25.06
2022-08-05T07:01:32.706Z,25.07
2022-08-05T07:04:03.127Z,25.11
2022-08-05T07:06:31.769Z,25.15
2022-08-05T07:09:04.094Z,25.18
2022-08-05T07:11:32.607Z,25.23
2022-08-05T07:14:29.293Z,25.31
2022-08-05T07:18:07.104Z,25.42
2022-08-05T07:22:41.968Z,25.60
2022-08-05T07:25:22.416Z,25.69
2022-08-05T07:28:05.996Z,25.74
2022-08-05T07:30:39.016Z,25.83
2022-08-05T07:33:16.850Z,25.88
2022-08-05T07:36:01.749Z,25.93
2022-08-05T07:38:42.562Z,25.97
2022-08-05T07:42:13.474Z,26.01
2022-08-05T07:44:14.027Z,26.06
2022-08-05T07:46:45.947Z,26.21
2022-08-05T07:49:16.563Z,26.29
2022-08-05T07:51:53.199Z,26.40
2022-08-05T07:54:31.328Z,26.52
2022-08-05T07:57:17.627Z,26.64
2022-08-05T07:59:50.938Z,26.74
2022-08-05T08:02:18.897Z,26.79
2022-08-05T08:04:48.487Z,26.88
2022-08-05T08:07:17.919Z,26.93
2022-08-05T08:09:46.813Z,27.05
2022-08-05T08:12:35.457Z,27.12
2022-08-05T08:15:05.213Z,27.23
2022-08-05T08:17:46.261Z,27.28
2022-08-05T08:20:43.615Z,27.33
2022-08-05T08:23:06.054Z,27.36
2022-08-05T08:25:59.831Z,27.43
2022-08-05T08:28:35.724Z,27.51
2022-08-05T08:31:05.275Z,27.56
2022-08-05T08:33:35.886Z,27.56
2022-08-05T08:36:37.490Z,27.54
2022-08-05T08:38:57.079Z,27.54
2022-08-05T08:41:51.873Z,27.59
2022-08-05T08:45:17.947Z,27.64
2022-08-05T08:47:47.577Z,27.65
2022-08-05T08:50:05.667Z,27.65
2022-08-05T08:52:53.733Z,27.65
2022-08-05T08:55:32.181Z,27.70
2022-08-05T08:58:12.923Z,27.78
2022-08-05T09:00:42.497Z,27.86
2022-08-05T09:03:12.410Z,27.86
2022-08-05T09:06:08.826Z,27.91
2022-08-05T09:08:31.983Z,27.98
2022-08-05T09:10:59.973Z,28.04
2022-08-05T09:13:31.765Z,28.05
2022-08-05T09:16:16.884Z,28.09
2022-08-05T09:18:45.554Z,28.08
2022-08-05T09:21:20.818Z,28.15
2022-08-05T09:24:02.741Z,28.20
2022-08-05T09:26:30.451Z,28.28
2022-08-05T09:29:08.820Z,28.33
2022-08-05T09:32:40.693Z,28.38
2022-08-05T09:34:26.020Z,28.45
2022-08-05T09:36:59.075Z,28.52
2022-08-05T09:39:45.086Z,28.58
2022-08-05T09:42:24.390Z,28.64
2022-08-05T09:45:03.178Z,28.64
2022-08-05T09:47:48.086Z,28.64
2022-08-05T09:50:37.398Z,28.69
2022-08-05T09:53:06.741Z,28.68
2022-08-05T09:55:56.289Z,28.70
2022-08-05T09:58:25.802Z,28.71
2022-08-05T10:01:14.995Z,28.70
2022-08-05T10:04:04.234Z,28.71
2022-08-05T10:06:41.562Z,28.66
2022-08-05T10:09:28.262Z,28.62
2022-08-05T10:12:18.811Z,28.55
2022-08-05T10:15:20.148Z,28.53
2022-08-05T10:18:08.641Z,28.53
2022-08-05T10:20:51.794Z,28.56
2022-08-05T10:23:55.747Z,28.58
2022-08-05T10:26:24.329Z,28.62
2022-08-05T10:29:00.890Z,28.68
2022-08-05T10:32:52.276Z,28.72
2022-08-05T10:34:16.954Z,28.72
2022-08-05T10:36:45.371Z,28.77
2022-08-05T10:39:25.139Z,28.82
2022-08-05T10:42:22.847Z,28.89
2022-08-05T10:45:09.793Z,28.92
2022-08-05T10:47:56.405Z,28.93
2022-08-05T10:50:59.274Z,28.97
2022-08-05T10:53:45.131Z,28.99
2022-08-05T10:56:25.516Z,28.98
2022-08-05T10:58:56.583Z,28.99
2022-08-05T11:02:04.669Z,28.99
2022-08-05T11:04:36.654Z,29.03
2022-08-05T11:07:07.916Z,29.06
2022-08-05T11:10:09.549Z,29.14
2022-08-05T11:12:38.182Z,29.19
2022-08-05T11:15:21.040Z,29.17
2022-08-05T11:17:58.950Z,29.17
2022-08-05T11:20:34.418Z,29.16
2022-08-05T11:23:33.538Z,29.15
2022-08-05T11:26:29.013Z,29.16
2022-08-05T11:29:12.756Z,29.23
2022-08-05T11:31:57.742Z,29.30
2022-08-05T11:34:50.901Z,29.38
2022-08-05T11:38:36.741Z,29.47
2022-08-05T11:41:01.340Z,29.53
2022-08-05T11:44:21.649Z,29.49
2022-08-05T11:47:10.974Z,29.48
2022-08-05T11:49:43.274Z,29.48
2022-08-05T11:52:29.345Z,29.50
2022-08-05T11:54:59.479Z,29.49
2022-08-05T11:58:07.922Z,29.49
2022-08-05T12:00:31.547Z,29.57
2022-08-05T12:02:59.450Z,29.66
2022-08-05T12:05:32.247Z,29.69
2022-08-05T12:08:11.539Z,29.65
2022-08-05T12:10:46.560Z,29.64
2022-08-05T12:13:28.172Z,29.65
2022-08-05T12:16:15.084Z,29.54
2022-08-05T12:18:49.523Z,29.50
2022-08-05T12:21:23.530Z,29.41
2022-08-05T12:24:05.163Z,29.39
2022-08-05T12:26:35.272Z,29.45
2022-08-05T12:29:09.770Z,29.51
2022-08-05T12:31:54.370Z,29.61
2022-08-05T12:34:35.745Z,29.69
2022-08-05T12:37:16.956Z,29.75
2022-08-05T12:39:51.564Z,29.77
2022-08-05T12:42:21.878Z,29.83
2022-08-05T12:44:53.157Z,29.90
2022-08-05T12:47:31.656Z,29.98
2022-08-05T12:50:03.354Z,30.07
2022-08-05T12:52:41.894Z,30.12
2022-08-05T12:55:28.572Z,30.05
2022-08-05T12:58:50.149Z,30.02
2022-08-05T13:02:04.061Z,30.05
2022-08-05T13:03:43.026Z,30.06
2022-08-05T13:06:17.962Z,30.07
2022-08-05T13:08:51.942Z,30.11
2022-08-05T13:11:59.935Z,30.13
2022-08-05T13:14:25.005Z,30.12
2022-08-05T13:17:10.328Z,30.12
2022-08-05T13:19:52.031Z,30.11
2022-08-05T13:22:28.446Z,30.12
2022-08-05T13:25:05.516Z,30.15
2022-08-05T13:27:39.263Z,30.10
2022-08-05T13:30:36.102Z,30.11
2022-08-05T13:33:03.898Z,30.12
2022-08-05T13:35:47.103Z,30.14
2022-08-05T13:38:30.669Z,30.13
2022-08-05T13:41:02.119Z,30.14
2022-08-05T13:43:43.305Z,30.18
2022-08-05T13:46:14.319Z,30.18
2022-08-05T13:48:57.308Z,30.19
2022-08-05T13:51:36.593Z,30.18
2022-08-05T13:54:15.066Z,30.05
2022-08-05T13:56:45.252Z,29.98
2022-08-05T13:59:27.073Z,29.99
2022-08-05T14:02:00.512Z,30.05
2022-08-05T14:05:00.694Z,30.09
2022-08-05T14:08:00.725Z,30.16
2022-08-05T14:10:30.780Z,30.20
2022-08-05T14:12:59.740Z,30.22
2022-08-05T14:16:04.465Z,30.17
2022-08-05T14:18:18.313Z,30.15
2022-08-05T14:20:48.675Z,30.13
2022-08-05T14:23:25.524Z,30.13
2022-08-05T14:25:59.047Z,30.14
2022-08-05T14:28:30.947Z,30.16
2022-08-05T14:31:01.917Z,30.18
2022-08-05T14:33:56.669Z,30.21
2022-08-05T14:36:21.422Z,30.25
2022-08-05T14:38:50.272Z,30.28
2022-08-05T14:41:18.861Z,30.33
2022-08-05T14:44:01.594Z,30.37
2022-08-05T14:46:35.522Z,30.38
2022-08-05T14:49:07.323Z,30.43
2022-08-05T14:51:42.954Z,30.47
2022-08-05T14:54:30.140Z,30.50
2022-08-05T14:57:00.235Z,30.55
2022-08-05T14:59:35.822Z,30.56
2022-08-05T15:02:15.831Z,30.60
2022-08-05T15:04:44.981Z,30.61
2022-08-05T15:08:05.698Z,30.62
2022-08-05T15:10:03.489Z,30.66
2022-08-05T15:12:51.316Z,30.68
2022-08-05T15:15:55.866Z,30.70
2022-08-05T15:18:07.081Z,30.73
2022-08-05T15:20:34.966Z,30.78
2022-08-05T15:23:08.242Z,30.84
2022-08-05T15:25:51.046Z,30.88
2022-08-05T15:28:22.259Z,30.96
2022-08-05T15:30:55.201Z,31.01
2022-08-05T15:34:19.555Z,31.04
2022-08-05T15:36:17.400Z,31.07
2022-08-05T15:40:58.832Z,31.11
2022-08-05T15:41:56.268Z,31.17
2022-08-05T15:44:27.633Z,31.21
2022-08-05T15:46:55.911Z,31.26
2022-08-05T15:49:41.879Z,31.23
2022-08-05T15:52:16.257Z,31.24
2022-08-05T15:54:57.500Z,31.20
2022-08-05T15:57:27.825Z,31.16
2022-08-05T16:00:02.683Z,31.15
2022-08-05T16:02:30.648Z,31.13
2022-08-05T16:04:59.130Z,31.11
2022-08-05T16:07:29.486Z,31.12
2022-08-05T16:09:57.527Z,31.13
2022-08-05T16:12:25.565Z,31.14
2022-08-05T16:14:53.391Z,31.13
2022-08-05T16:17:21.137Z,31.12
2022-08-05T16:20:05.748Z,31.12
2022-08-05T16:22:36.736Z,31.14
2022-08-05T16:25:09.826Z,31.17
2022-08-05T16:28:01.063Z,31.17
2022-08-05T16:30:28.751Z,31.18
2022-08-05T16:32:56.989Z,31.19
2022-08-05T16:35:28.322Z,31.27
2022-08-05T16:38:02.635Z,31.29
2022-08-05T16:40:51.615Z,31.28
2022-08-05T16:43:24.031Z,31.26
2022-08-05T16:46:06.451Z,31.23
2022-08-05T16:48:37.456Z,31.19
2022-08-05T16:51:09.098Z,31.15
2022-08-05T16:54:05.394Z,31.12
2022-08-05T16:56:31.624Z,31.14
2022-08-05T16:59:01.847Z,31.16
2022-08-05T17:01:54.221Z,31.16
2022-08-05T17:04:28.316Z,31.14
2022-08-05T17:07:11.083Z,31.07
2022-08-05T17:09:57.459Z,30.96
2022-08-05T17:12:51.384Z,30.83
2022-08-05T17:15:15.656Z,30.70
2022-08-05T17:17:54.756Z,30.56
2022-08-05T17:20:23.155Z,30.42
2022-08-05T17:22:55.413Z,30.32
2022-08-05T17:25:39.397Z,30.21
2022-08-05T17:28:09.248Z,30.09
2022-08-05T17:30:50.715Z,29.89
2022-08-05T17:33:20.929Z,29.68
2022-08-05T17:36:07.717Z,29.47
2022-08-05T17:38:36.603Z,29.27
2022-08-05T17:41:04.335Z,29.06
2022-08-05T17:43:47.159Z,28.81
2022-08-05T17:46:21.400Z,28.61
2022-08-05T17:48:49.342Z,28.43
2022-08-05T17:51:21.787Z,28.28
2022-08-05T17:53:54.419Z,28.13
2022-08-05T17:56:23.021Z,27.98
2022-08-05T17:58:56.024Z,27.82
2022-08-05T18:01:24.203Z,27.66
2022-08-05T18:04:04.392Z,27.47
2022-08-05T18:06:33.634Z,27.35
2022-08-05T18:09:03.766Z,27.16
2022-08-05T18:11:33.014Z,26.86
2022-08-05T18:14:13.483Z,26.43
2022-08-05T18:16:46.786Z,25.91
2022-08-05T18:19:22.689Z,25.50
2022-08-05T18:22:06.978Z,24.99
2022-08-05T18:24:37.669Z,24.45
2022-08-05T18:27:18.176Z,23.03
2022-08-05T18:29:53.566Z,21.39
2022-08-05T18:32:27.820Z,20.02
2022-08-05T18:34:56.309Z,19.19
2022-08-05T18:37:33.346Z,18.76
2022-08-05T18:41:50.715Z,18.48
2022-08-05T18:42:50.380Z,18.19
2022-08-05T18:45:19.898Z,17.95
2022-08-05T18:47:52.880Z,17.78
2022-08-05T18:50:46.486Z,17.63
2022-08-05T18:53:20.499Z,17.51
2022-08-05T18:55:52.500Z,17.42
2022-08-05T18:58:27.252Z,17.33
2022-08-05T19:00:57.021Z,17.27
2022-08-05T19:03:53.493Z,17.23
2022-08-05T19:06:19.219Z,17.19
2022-08-05T19:08:49.984Z,17.17
2022-08-05T19:11:28.095Z,17.20
2022-08-05T19:14:20.048Z,17.29
2022-08-05T19:16:52.379Z,17.38
2022-08-05T19:19:21.002Z,17.49
2022-08-05T19:21:48.951Z,17.58
2022-08-05T19:24:19.305Z,17.63
2022-08-05T19:27:04.042Z,17.70
2022-08-05T19:29:36.006Z,17.75
2022-08-05T19:32:06.188Z,17.79
2022-08-05T19:34:36.702Z,17.81
2022-08-05T19:37:04.642Z,17.84
2022-08-05T19:39:32.876Z,17.88
2022-08-05T19:42:15.178Z,17.92
2022-08-05T19:44:45.160Z,17.99
2022-08-05T19:47:15.336Z,18.06
2022-08-05T19:49:45.175Z,18.10
2022-08-05T19:52:31.824Z,18.09
2022-08-05T19:55:07.099Z,18.06
2022-08-05T19:58:19.408Z,18.05
2022-08-05T20:00:38.394Z,18.06
2022-08-05T20:03:09.201Z,18.07
2022-08-05T20:05:43.046Z,18.09
2022-08-05T20:08:11.363Z,18.07
2022-08-05T20:10:39.472Z,18.09
2022-08-05T20:13:11.990Z,18.11
2022-08-05T20:15:52.701Z,18.07
2022-08-05T20:18:32.885Z,18.06
2022-08-05T20:21:06.617Z,18.03
2022-08-05T20:23:40.408Z,18.01
2022-08-05T20:26:25.714Z,18.02
2022-08-05T20:28:56.838Z,18.09
2022-08-05T20:31:37.611Z,18.07
2022-08-05T20:34:14.963Z,18.09
2022-08-05T20:36:43.319Z,18.10
2022-08-05T20:39:12.971Z,18.08
2022-08-05T20:41:44.041Z,18.06
2022-08-05T20:44:17.743Z,18.04
2022-08-05T20:46:58.135Z,18.02
2022-08-05T20:49:26.326Z,18.03
2022-08-05T20:51:55.815Z,17.98
2022-08-05T20:54:42.705Z,17.97
2022-08-05T20:57:14.429Z,17.93
2022-08-05T21:00:10.751Z,17.92
2022-08-05T21:02:30.203Z,17.90
2022-08-05T21:04:58.588Z,17.89
2022-08-05T21:07:50.689Z,17.89
2022-08-05T21:10:18.675Z,17.90
2022-08-05T21:12:58.132Z,17.93
2022-08-05T21:15:34.188Z,17.95
2022-08-05T21:18:01.922Z,17.97
2022-08-05T21:20:33.471Z,17.98
2022-08-05T21:23:01.532Z,17.98
2022-08-05T21:25:33.534Z,18.00
2022-08-05T21:28:03.121Z,18.02
2022-08-05T21:30:31.037Z,18.06
2022-08-05T21:32:58.740Z,18.06
2022-08-05T21:35:30.011Z,18.03
2022-08-05T21:38:11.326Z,18.03
2022-08-05T21:40:41.462Z,18.04
2022-08-05T21:43:24.227Z,18.08
2022-08-05T21:45:57.653Z,18.11
2022-08-05T21:48:29.318Z,18.11
2022-08-05T21:51:00.018Z,18.15
2022-08-05T21:53:28.068Z,18.18
2022-08-05T21:56:16.912Z,18.23
2022-08-05T21:58:57.258Z,18.25
2022-08-05T22:01:26.179Z,18.23
2022-08-05T22:03:54.449Z,18.25
2022-08-05T22:06:35.581Z,18.26
2022-08-05T22:09:13.547Z,18.29
2022-08-05T22:11:48.682Z,18.36
2022-08-05T22:14:35.561Z,18.46
2022-08-05T22:17:06.831Z,18.51
2022-08-05T22:20:01.230Z,18.50
2022-08-05T22:22:28.011Z,18.48
2022-08-05T22:25:27.572Z,18.49
2022-08-05T22:28:10.258Z,18.48
2022-08-05T22:30:55.628Z,18.48
2022-08-05T22:33:55.413Z,18.48
2022-08-05T22:36:14.760Z,18.47
2022-08-05T22:38:48.276Z,18.45
2022-08-05T22:42:05.539Z,18.47
2022-08-05T22:44:04.998Z,18.47
2022-08-05T22:46:33.008Z,18.46
2022-08-05T22:49:00.784Z,18.45
2022-08-05T22:52:02.615Z,18.45
2022-08-05T22:54:16.275Z,18.44
2022-08-05T22:56:44.020Z,18.44
2022-08-05T22:59:45.131Z,18.41
2022-08-05T23:02:07.877Z,18.44
2022-08-05T23:04:36.463Z,18.44
2022-08-05T23:07:07.009Z,18.46
2022-08-05T23:09:57.666Z,18.50
2022-08-05T23:12:25.362Z,18.49
2022-08-05T23:14:56.394Z,18.45
2022-08-05T23:17:34.638Z,18.42
2022-08-05T23:20:15.553Z,18.39
2022-08-05T23:22:48.721Z,18.38
2022-08-05T23:25:53.302Z,18.35
2022-08-05T23:28:07.635Z,18.38
2022-08-05T23:30:40.291Z,18.39
2022-08-05T23:33:16.246Z,18.37
2022-08-05T23:35:51.788Z,18.41
2022-08-05T23:38:22.911Z,18.49
2022-08-05T23:40:52.679Z,18.49
2022-08-05T23:43:25.554Z,18.40
2022-08-05T23:46:20.020Z,18.39
2022-08-05T23:49:00.058Z,18.40
2022-08-05T23:51:53.309Z,18.43
2022-08-05T23:54:36.462Z,18.44
2022-08-05T23:57:06.885Z,18.44
